createdAt,value
2018-08-23T00:01:30.330Z,51.98
2018-08-23T00:04:05.622Z,52.32
2018-08-23T00:06:32.943Z,52.30
2018-08-23T00:09:00.203Z,52.76
2018-08-23T00:11:31.348Z,52.58
2018-08-23T00:13:58.661Z,52.72
2018-08-23T00:16:33.110Z,52.73
2018-08-23T00:21:51.034Z,52.80
2018-08-23T00:24:20.498Z,52.88
2018-08-23T00:26:56.438Z,53.04
2018-08-23T00:29:33.335Z,52.91
2018-08-23T00:32:04.973Z,53.31
2018-08-23T00:34:34.568Z,53.23
2018-08-23T00:37:03.348Z,53.18
2018-08-23T00:39:30.807Z,53.62
2018-08-23T00:42:03.657Z,53.39
2018-08-23T00:44:42.260Z,53.72
2018-08-23T00:47:09.505Z,54.00
2018-08-23T00:49:36.807Z,54.19
2018-08-23T00:52:04.088Z,53.70
2018-08-23T00:54:31.322Z,54.39
2018-08-23T00:56:58.559Z,54.16
2018-08-23T00:59:25.803Z,54.30
2018-08-23T01:02:01.421Z,54.40
2018-08-23T01:04:29.887Z,54.34
2018-08-23T01:06:57.137Z,54.97
2018-08-23T01:09:24.486Z,54.49
2018-08-23T01:11:51.764Z,54.44
2018-08-23T01:14:18.998Z,54.79
2018-08-23T01:16:57.973Z,54.37
2018-08-23T01:19:30.862Z,54.41
2018-08-23T01:21:58.175Z,54.11
2018-08-23T01:24:28.422Z,54.05
2018-08-23T01:26:55.682Z,54.56
2018-08-23T01:29:27.947Z,54.08
2018-08-23T01:32:02.214Z,53.84
2018-08-23T01:34:29.447Z,53.87
2018-08-23T01:36:56.690Z,53.45
2018-08-23T01:39:23.932Z,53.43
2018-08-23T01:41:51.187Z,54.07
2018-08-23T01:44:18.988Z,54.94
2018-08-23T01:46:46.238Z,55.30
2018-08-23T01:49:13.514Z,55.30
2018-08-23T01:51:41.022Z,55.72
2018-08-23T01:54:08.269Z,55.79
2018-08-23T01:56:35.504Z,55.48
2018-08-23T01:59:02.794Z,55.41
2018-08-23T02:01:30.060Z,54.68
2018-08-23T02:03:57.304Z,54.93
2018-08-23T02:06:30.307Z,53.99
2018-08-23T02:08:57.553Z,54.39
2018-08-23T02:11:24.834Z,54.56
2018-08-23T02:13:52.097Z,54.93
2018-08-23T02:16:19.358Z,54.90
2018-08-23T02:18:46.639Z,54.78
2018-08-23T02:21:13.856Z,55.62
2018-08-23T02:23:42.826Z,55.94
2018-08-23T02:26:10.138Z,56.12
2018-08-23T02:28:37.380Z,56.70
2018-08-23T02:31:04.657Z,57.10
2018-08-23T02:33:31.964Z,56.46
2018-08-23T02:36:21.702Z,56.44
2018-08-23T02:38:54.428Z,56.30
2018-08-23T02:41:21.646Z,56.36
2018-08-23T02:43:48.891Z,57.05
2018-08-23T02:46:16.303Z,56.52
2018-08-23T02:48:43.780Z,57.26
2018-08-23T02:51:11.025Z,57.54
2018-08-23T02:53:42.663Z,57.11
2018-08-23T02:56:13.312Z,56.96
2018-08-23T02:58:59.523Z,55.93
2018-08-23T03:01:29.548Z,56.06
2018-08-23T03:04:08.851Z,55.88
2018-08-23T03:06:43.613Z,55.29
2018-08-23T03:09:10.919Z,55.83
2018-08-23T03:11:38.152Z,56.36
2018-08-23T03:14:05.893Z,56.87
2018-08-23T03:16:45.872Z,56.77
2018-08-23T03:19:14.505Z,57.46
2018-08-23T03:21:42.234Z,57.62
2018-08-23T03:24:10.396Z,57.53
2018-08-23T03:26:37.973Z,57.51
2018-08-23T03:29:05.394Z,58.01
2018-08-23T03:31:32.644Z,57.45
2018-08-23T03:33:59.903Z,57.58
2018-08-23T03:36:27.154Z,57.82
2018-08-23T03:38:54.391Z,57.89
2018-08-23T03:41:21.635Z,58.36
2018-08-23T03:43:48.890Z,58.60
2018-08-23T03:46:16.157Z,59.13
2018-08-23T03:48:45.571Z,58.45
2018-08-23T03:51:12.825Z,58.69
2018-08-23T03:53:47.513Z,59.02
2018-08-23T03:56:15.979Z,59.08
2018-08-23T03:58:43.493Z,59.71
2018-08-23T04:01:13.054Z,59.75
2018-08-23T04:03:40.451Z,60.46
2018-08-23T04:06:25.131Z,59.48
2018-08-23T04:08:52.499Z,59.06
2018-08-23T04:11:20.814Z,59.36
2018-08-23T04:13:49.140Z,59.62
2018-08-23T04:16:24.522Z,59.70
2018-08-23T04:18:52.020Z,59.55
2018-08-23T04:21:19.338Z,59.55
2018-08-23T04:23:46.731Z,60.18
2018-08-23T04:26:14.070Z,60.67
2018-08-23T04:28:41.521Z,60.22
2018-08-23T04:31:08.792Z,60.21
2018-08-23T04:33:36.124Z,60.02
2018-08-23T04:36:03.550Z,59.98
2018-08-23T04:38:30.942Z,60.09
2018-08-23T04:41:03.013Z,59.90
2018-08-23T04:43:30.364Z,60.21
2018-08-23T04:45:58.201Z,60.34
2018-08-23T04:48:26.131Z,60.69
2018-08-23T04:50:53.502Z,60.56
2018-08-23T04:53:20.938Z,60.20
2018-08-23T04:55:48.319Z,60.68
2018-08-23T04:58:15.655Z,60.25
2018-08-23T05:00:43.523Z,60.17
2018-08-23T05:03:11.839Z,59.86
2018-08-23T05:05:39.839Z,60.23
2018-08-23T05:08:07.258Z,59.72
2018-08-23T05:10:34.661Z,59.38
2018-08-23T05:13:02.863Z,59.25
2018-08-23T05:15:30.250Z,58.59
2018-08-23T05:17:57.559Z,57.86
2018-08-23T05:20:24.881Z,57.61
2018-08-23T05:22:58.063Z,56.90
2018-08-23T05:25:25.426Z,57.05
2018-08-23T05:28:07.416Z,56.73
2018-08-23T05:30:34.789Z,55.70
2018-08-23T05:33:10.807Z,55.54
2018-08-23T05:35:38.214Z,55.10
2018-08-23T05:38:07.160Z,54.16
2018-08-23T05:40:40.414Z,53.96
2018-08-23T05:43:07.763Z,53.08
2018-08-23T05:45:40.755Z,52.94
2018-08-23T05:48:31.800Z,52.63
2018-08-23T05:51:08.830Z,52.34
2018-08-23T05:53:43.930Z,51.76
2018-08-23T05:56:11.287Z,51.03
2018-08-23T05:58:38.927Z,50.06
2018-08-23T06:01:06.474Z,49.43
2018-08-23T06:03:35.393Z,49.03
2018-08-23T06:06:02.674Z,48.83
2018-08-23T06:08:29.960Z,48.01
2018-08-23T06:11:03.798Z,47.27
2018-08-23T06:13:31.268Z,47.13
2018-08-23T06:15:59.307Z,46.25
2018-08-23T06:18:28.314Z,45.41
2018-08-23T06:20:55.745Z,45.07
2018-08-23T06:23:33.934Z,44.01
2018-08-23T06:26:01.358Z,43.46
2018-08-23T06:28:28.656Z,42.81
2018-08-23T06:30:57.779Z,42.17
2018-08-23T06:33:36.709Z,42.31
2018-08-23T06:36:04.307Z,42.03
2018-08-23T06:38:32.653Z,42.52
2018-08-23T06:41:01.619Z,41.68
2018-08-23T06:43:29.652Z,41.90
2018-08-23T06:45:57.318Z,40.86
2018-08-23T06:48:24.639Z,39.97
2018-08-23T06:50:54.902Z,39.72
2018-08-23T06:53:27.694Z,39.35
2018-08-23T06:55:55.011Z,38.08
2018-08-23T06:58:22.729Z,37.48
2018-08-23T07:00:50.068Z,36.59
2018-08-23T07:03:17.391Z,35.93
2018-08-23T07:05:44.724Z,35.24
2018-08-23T07:08:12.034Z,35.07
2018-08-23T07:10:39.370Z,35.97
2018-08-23T07:13:06.687Z,36.44
2018-08-23T07:15:34.107Z,35.73
2018-08-23T07:18:02.112Z,35.62
2018-08-23T07:20:29.593Z,35.09
2018-08-23T07:22:58.270Z,34.98
2018-08-23T07:25:25.624Z,33.83
2018-08-23T07:27:53.009Z,34.64
2018-08-23T07:30:20.571Z,33.76
2018-08-23T07:32:49.143Z,32.84
2018-08-23T07:35:17.190Z,31.30
2018-08-23T07:37:45.878Z,31.43
2018-08-23T07:40:17.014Z,30.76
2018-08-23T07:42:45.499Z,30.76
2018-08-23T07:45:12.943Z,30.78
2018-08-23T07:47:41.460Z,29.51
2018-08-23T07:50:09.187Z,29.30
2018-08-23T07:52:37.209Z,28.45
2018-08-23T07:55:05.670Z,28.64
2018-08-23T07:57:34.183Z,28.83
2018-08-23T08:00:03.751Z,28.21
2018-08-23T08:02:31.607Z,28.09
2018-08-23T08:04:59.192Z,28.12
2018-08-23T08:07:31.444Z,27.78
2018-08-23T08:10:00.222Z,26.70
2018-08-23T08:12:36.588Z,27.53
2018-08-23T08:15:06.028Z,27.55
2018-08-23T08:17:34.418Z,27.45
2018-08-23T08:20:05.425Z,27.73
2018-08-23T08:22:32.762Z,27.53
2018-08-23T08:25:02.475Z,27.14
2018-08-23T08:27:30.055Z,26.69
2018-08-23T08:29:57.388Z,27.06
2018-08-23T08:32:24.819Z,27.29
2018-08-23T08:34:53.762Z,27.15
2018-08-23T08:37:21.112Z,27.85
2018-08-23T08:39:48.443Z,27.39
2018-08-23T08:42:15.864Z,28.33
2018-08-23T08:44:43.181Z,27.81
2018-08-23T08:47:10.538Z,27.12
2018-08-23T08:49:37.894Z,26.99
2018-08-23T08:52:05.852Z,26.44
2018-08-23T08:54:33.777Z,26.02
2018-08-23T08:57:03.250Z,25.33
2018-08-23T08:59:32.189Z,25.58
2018-08-23T09:02:00.034Z,24.87
2018-08-23T09:04:32.996Z,25.77
2018-08-23T09:07:00.462Z,25.83
2018-08-23T09:09:31.709Z,26.07
2018-08-23T09:12:01.784Z,25.94
2018-08-23T09:14:29.864Z,24.90
2018-08-23T09:16:57.224Z,24.58
2018-08-23T09:19:36.024Z,24.15
2018-08-23T09:22:08.890Z,24.29
2018-08-23T09:24:36.893Z,23.54
2018-08-23T09:27:08.511Z,23.19
2018-08-23T09:29:42.530Z,23.11
2018-08-23T09:32:30.997Z,22.89
2018-08-23T09:34:59.729Z,22.37
2018-08-23T09:37:28.266Z,22.11
2018-08-23T09:39:55.727Z,22.09
2018-08-23T09:42:23.072Z,22.63
2018-08-23T09:45:04.284Z,22.37
2018-08-23T09:47:31.581Z,21.84
2018-08-23T09:49:59.579Z,21.87
2018-08-23T09:52:28.928Z,22.19
2018-08-23T09:54:57.091Z,21.56
2018-08-23T09:57:24.884Z,22.29
2018-08-23T09:59:53.523Z,21.87
2018-08-23T10:02:26.665Z,23.06
2018-08-23T10:04:54.513Z,22.43
2018-08-23T10:07:28.147Z,23.14
2018-08-23T10:15:05.416Z,21.90
2018-08-23T10:17:38.307Z,20.95
2018-08-23T10:20:11.611Z,21.93
2018-08-23T10:22:44.676Z,21.29
2018-08-23T10:25:29.173Z,21.63
2018-08-23T10:27:56.524Z,21.28
2018-08-23T10:30:24.819Z,22.24
2018-08-23T10:32:52.383Z,22.30
2018-08-23T10:35:19.798Z,22.02
2018-08-23T10:37:47.127Z,22.13
2018-08-23T10:40:14.585Z,21.93
2018-08-23T10:42:41.902Z,21.56
2018-08-23T10:45:09.199Z,22.37
2018-08-23T10:47:42.206Z,22.18
2018-08-23T10:50:10.208Z,21.99
2018-08-23T10:52:37.510Z,21.51
2018-08-23T10:55:05.362Z,21.10
2018-08-23T10:57:32.673Z,20.83
2018-08-23T11:00:00.242Z,21.10
2018-08-23T11:02:27.563Z,20.62
2018-08-23T11:04:55.583Z,20.43
2018-08-23T11:07:27.619Z,20.22
2018-08-23T11:10:00.644Z,21.61
2018-08-23T11:12:33.670Z,22.62
2018-08-23T11:15:05.559Z,23.92
2018-08-23T11:17:45.701Z,22.85
2018-08-23T11:20:35.988Z,21.18
2018-08-23T11:23:03.535Z,21.82
2018-08-23T11:25:30.950Z,22.15
2018-08-23T11:28:03.875Z,21.68
2018-08-23T11:30:31.384Z,21.00
2018-08-23T11:32:58.818Z,19.80
2018-08-23T11:35:26.235Z,19.65
2018-08-23T11:37:53.555Z,18.77
2018-08-23T11:40:20.912Z,19.25
2018-08-23T11:42:49.359Z,20.34
2018-08-23T11:45:16.685Z,21.08
2018-08-23T11:47:44.112Z,21.13
2018-08-23T11:50:12.025Z,22.15
2018-08-23T11:52:39.407Z,23.53
2018-08-23T11:55:07.610Z,23.01
2018-08-23T11:57:34.957Z,24.17
2018-08-23T12:00:02.300Z,24.15
2018-08-23T12:02:30.307Z,23.62
2018-08-23T12:04:57.849Z,23.82
2018-08-23T12:07:25.364Z,23.82
2018-08-23T12:09:53.742Z,23.69
2018-08-23T12:12:21.233Z,23.88
2018-08-23T12:14:53.126Z,24.31
2018-08-23T12:17:20.456Z,24.91
2018-08-23T12:19:47.845Z,25.33
2018-08-23T12:22:45.046Z,25.79
2018-08-23T12:25:13.164Z,26.52
2018-08-23T12:27:41.578Z,26.51
2018-08-23T12:30:09.111Z,26.85
2018-08-23T12:32:36.557Z,26.90
2018-08-23T12:35:33.225Z,29.64
2018-08-23T12:38:08.865Z,38.56
2018-08-23T12:40:41.940Z,40.66
2018-08-23T12:43:11.194Z,43.90
2018-08-23T12:45:40.711Z,45.79
2018-08-23T12:48:09.140Z,45.31
2018-08-23T12:50:36.745Z,44.79
2018-08-23T12:53:05.059Z,44.02
2018-08-23T12:55:32.468Z,40.96
2018-08-23T12:58:00.691Z,41.59
2018-08-23T13:00:28.028Z,43.06
2018-08-23T13:02:55.483Z,43.34
2018-08-23T13:05:22.821Z,47.37
2018-08-23T13:07:50.149Z,48.09
2018-08-23T13:10:17.497Z,51.08
2018-08-23T13:12:44.931Z,53.32
2018-08-23T13:15:12.388Z,53.45
2018-08-23T13:17:40.600Z,55.11
2018-08-23T13:20:07.960Z,55.28
2018-08-23T13:22:39.560Z,55.55
2018-08-23T13:25:08.947Z,55.39
2018-08-23T13:27:37.105Z,54.52
2018-08-23T13:30:04.775Z,57.99
2018-08-23T13:32:32.159Z,58.79
2018-08-23T13:34:59.666Z,61.06
2018-08-23T13:37:27.852Z,63.84
2018-08-23T13:39:56.217Z,66.38
2018-08-23T13:42:23.604Z,66.69
2018-08-23T13:44:51.083Z,68.67
2018-08-23T13:47:19.386Z,69.28
2018-08-23T13:49:46.870Z,68.94
2018-08-23T13:52:14.771Z,70.92
2018-08-23T13:54:43.210Z,72.64
2018-08-23T13:57:10.527Z,70.33
2018-08-23T13:59:38.129Z,67.14
2018-08-23T14:02:05.647Z,69.70
2018-08-23T14:04:33.142Z,69.89
2018-08-23T14:07:00.685Z,70.11
2018-08-23T14:09:28.056Z,68.63
2018-08-23T14:11:55.457Z,68.79
2018-08-23T14:14:23.444Z,68.36
2018-08-23T14:16:50.788Z,67.78
2018-08-23T14:19:19.314Z,64.33
2018-08-23T14:21:48.207Z,68.12
2018-08-23T14:24:16.360Z,69.17
2018-08-23T14:26:44.179Z,68.70
2018-08-23T14:29:11.573Z,68.76
2018-08-23T14:31:39.573Z,69.68
2018-08-23T14:34:07.654Z,67.62
2018-08-23T14:36:35.039Z,63.62
2018-08-23T14:39:02.519Z,60.25
2018-08-23T14:41:29.890Z,60.52
2018-08-23T14:43:57.231Z,57.98
2018-08-23T14:46:30.249Z,58.65
2018-08-23T14:48:57.616Z,58.13
2018-08-23T14:51:24.927Z,58.50
2018-08-23T14:53:52.650Z,59.29
2018-08-23T14:56:25.693Z,57.52
2018-08-23T14:58:53.037Z,55.73
2018-08-23T15:01:20.403Z,56.08
2018-08-23T15:03:48.601Z,56.43
2018-08-23T15:06:16.137Z,55.81
2018-08-23T15:08:43.537Z,56.94
2018-08-23T15:11:10.897Z,55.69
2018-08-23T15:13:38.475Z,55.75
2018-08-23T15:16:06.443Z,57.63
2018-08-23T15:18:33.838Z,56.94
2018-08-23T15:21:01.165Z,56.83
2018-08-23T15:23:28.586Z,56.14
2018-08-23T15:25:57.341Z,56.80
2018-08-23T15:28:24.953Z,54.85
2018-08-23T15:30:52.348Z,54.36
2018-08-23T15:33:19.748Z,53.33
2018-08-23T15:35:47.150Z,53.41
2018-08-23T15:38:14.499Z,52.48
2018-08-23T15:40:42.037Z,52.33
2018-08-23T15:43:09.424Z,51.95
2018-08-23T15:45:36.936Z,51.63
2018-08-23T15:48:04.745Z,50.95
2018-08-23T15:50:32.081Z,49.86
2018-08-23T15:53:00.288Z,50.87
2018-08-23T15:55:27.795Z,51.32
2018-08-23T15:57:54.991Z,52.46
2018-08-23T16:00:22.347Z,52.18
2018-08-23T16:02:49.858Z,50.73
2018-08-23T16:05:17.507Z,51.43
2018-08-23T16:07:44.862Z,50.14
2018-08-23T16:10:12.261Z,50.10
2018-08-23T16:12:39.675Z,48.49
2018-08-23T16:15:12.861Z,47.81
2018-08-23T16:17:45.862Z,46.32
2018-08-23T16:20:18.883Z,45.78
2018-08-23T16:22:46.891Z,46.00
2018-08-23T16:25:14.231Z,46.78
2018-08-23T16:27:42.422Z,47.46
2018-08-23T16:30:09.779Z,47.48
2018-08-23T16:32:37.201Z,48.01
2018-08-23T16:35:04.738Z,48.06
2018-08-23T16:37:32.847Z,49.56
2018-08-23T16:40:00.285Z,50.04
2018-08-23T16:42:27.700Z,50.30
2018-08-23T16:44:55.052Z,50.64
2018-08-23T16:47:22.491Z,51.10
2018-08-23T16:49:49.885Z,50.41
2018-08-23T16:52:17.408Z,49.71
2018-08-23T16:54:44.766Z,49.55
2018-08-23T16:57:12.356Z,49.45
2018-08-23T16:59:39.707Z,47.88
2018-08-23T17:02:07.149Z,49.18
2018-08-23T17:04:40.104Z,48.54
2018-08-23T17:07:07.793Z,49.10
2018-08-23T17:09:35.291Z,49.31
2018-08-23T17:12:03.306Z,50.61
2018-08-23T17:14:31.808Z,50.26
2018-08-23T17:17:05.151Z,51.04
2018-08-23T17:19:32.580Z,50.68
2018-08-23T17:21:59.960Z,50.04
2018-08-23T17:24:27.432Z,51.26
2018-08-23T17:26:54.825Z,51.17
2018-08-23T17:29:22.226Z,51.31
2018-08-23T17:31:49.596Z,51.79
2018-08-23T17:34:17.007Z,51.71
2018-08-23T17:36:44.335Z,52.07
2018-08-23T17:39:11.769Z,52.29
2018-08-23T17:41:39.306Z,53.12
2018-08-23T17:44:06.643Z,52.99
2018-08-23T17:46:34.004Z,53.40
2018-08-23T17:49:01.565Z,54.02
2018-08-23T17:51:28.931Z,54.21
2018-08-23T17:53:56.319Z,54.21
2018-08-23T17:56:24.311Z,53.89
2018-08-23T17:58:51.678Z,54.60
2018-08-23T18:01:19.159Z,54.61
2018-08-23T18:03:46.572Z,54.62
2018-08-23T18:06:14.083Z,54.03
2018-08-23T18:08:41.576Z,54.77
2018-08-23T18:11:08.951Z,54.32
2018-08-23T18:13:36.599Z,54.86
2018-08-23T18:16:09.548Z,54.58
2018-08-23T18:18:37.407Z,55.18
2018-08-23T18:21:05.310Z,55.43
2018-08-23T18:23:32.803Z,55.52
2018-08-23T18:26:00.403Z,55.37
2018-08-23T18:28:27.763Z,56.04
2018-08-23T18:30:55.150Z,55.96
2018-08-23T18:33:22.575Z,56.40
2018-08-23T18:35:49.999Z,56.53
2018-08-23T18:38:17.429Z,56.85
2018-08-23T18:40:44.747Z,56.19
2018-08-23T18:43:12.895Z,56.52
2018-08-23T18:45:40.432Z,56.86
2018-08-23T18:48:09.026Z,57.23
2018-08-23T18:50:36.434Z,57.20
2018-08-23T18:53:03.936Z,57.38
2018-08-23T18:55:31.297Z,58.25
2018-08-23T18:57:58.622Z,58.41
2018-08-23T19:00:26.263Z,58.17
2018-08-23T19:02:53.615Z,58.38
2018-08-23T19:05:21.009Z,58.64
2018-08-23T19:07:48.350Z,58.53
2018-08-23T19:10:15.740Z,58.42
2018-08-23T19:12:44.146Z,59.04
2018-08-23T19:15:11.473Z,58.45
2018-08-23T19:17:40.073Z,58.42
2018-08-23T19:20:08.539Z,58.35
2018-08-23T19:22:36.143Z,58.11
2018-08-23T19:25:03.520Z,57.97
2018-08-23T19:27:30.817Z,58.03
2018-08-23T19:29:58.183Z,58.21
2018-08-23T19:32:25.537Z,58.12
2018-08-23T19:34:52.850Z,57.93
2018-08-23T19:37:20.183Z,57.91
2018-08-23T19:39:47.479Z,57.58
2018-08-23T19:42:14.800Z,57.69
2018-08-23T19:44:47.670Z,57.40
2018-08-23T19:47:21.293Z,57.31
2018-08-23T19:49:51.475Z,57.04
2018-08-23T19:52:19.041Z,57.25
2018-08-23T19:54:46.374Z,57.21
2018-08-23T19:57:13.730Z,57.62
2018-08-23T19:59:41.021Z,57.03
2018-08-23T20:02:08.625Z,56.93
2018-08-23T20:04:35.913Z,57.00
2018-08-23T20:07:03.196Z,56.85
2018-08-23T20:09:30.544Z,57.13
2018-08-23T20:11:57.856Z,56.99
2018-08-23T20:14:25.748Z,57.26
2018-08-23T20:16:53.153Z,57.88
2018-08-23T20:19:20.464Z,58.33
2018-08-23T20:21:47.814Z,57.89
2018-08-23T20:24:15.139Z,58.31
2018-08-23T20:26:42.422Z,58.41
2018-08-23T20:29:09.685Z,58.49
2018-08-23T20:31:36.965Z,58.65
2018-08-23T20:34:04.214Z,58.71
2018-08-23T20:36:31.455Z,58.89
2018-08-23T20:38:58.725Z,59.01
2018-08-23T20:41:25.957Z,58.62
2018-08-23T20:43:53.187Z,58.95
2018-08-23T20:46:20.470Z,58.84
2018-08-23T20:48:47.695Z,58.79
2018-08-23T20:51:14.907Z,58.45
2018-08-23T20:53:42.177Z,59.10
2018-08-23T20:56:09.423Z,58.99
2018-08-23T20:58:36.664Z,59.08
2018-08-23T21:01:03.920Z,59.34
2018-08-23T21:03:31.163Z,59.00
2018-08-23T21:05:58.370Z,59.07
2018-08-23T21:08:25.612Z,60.19
2018-08-23T21:10:53.343Z,61.09
2018-08-23T21:13:20.610Z,61.06
2018-08-23T21:15:47.846Z,61.17
2018-08-23T21:18:15.107Z,61.15
2018-08-23T21:20:42.367Z,61.21
2018-08-23T21:23:09.632Z,61.59
2018-08-23T21:25:36.847Z,61.58
2018-08-23T21:28:04.139Z,61.35
2018-08-23T21:30:31.376Z,61.86
2018-08-23T21:32:58.610Z,62.01
2018-08-23T21:35:25.887Z,62.78
2018-08-23T21:37:53.115Z,62.98
2018-08-23T21:40:20.318Z,63.72
2018-08-23T21:42:47.578Z,63.91
2018-08-23T21:45:14.790Z,63.81
2018-08-23T21:47:42.021Z,63.96
2018-08-23T21:50:09.267Z,63.62
2018-08-23T21:52:36.538Z,63.98
2018-08-23T21:55:04.166Z,64.04
2018-08-23T21:57:31.997Z,63.90
2018-08-23T21:59:59.299Z,64.25
2018-08-23T22:02:26.598Z,64.16
2018-08-23T22:04:55.294Z,64.26
2018-08-23T22:07:22.862Z,64.38
2018-08-23T22:09:51.237Z,64.35
2018-08-23T22:12:20.230Z,64.05
2018-08-23T22:14:47.591Z,63.82
2018-08-23T22:17:14.800Z,63.87
2018-08-23T22:19:42.311Z,63.83
2018-08-23T22:22:09.939Z,64.05
2018-08-23T22:24:37.223Z,64.42
2018-08-23T22:27:04.893Z,64.35
2018-08-23T22:29:32.227Z,64.27
2018-08-23T22:31:59.455Z,64.61
2018-08-23T22:34:26.701Z,64.84
2018-08-23T22:36:53.912Z,64.98
2018-08-23T22:39:21.156Z,65.08
2018-08-23T22:41:48.692Z,65.02
2018-08-23T22:44:16.002Z,65.01
2018-08-23T22:46:43.412Z,65.30
2018-08-23T22:49:10.875Z,65.42
2018-08-23T22:51:38.115Z,65.80
2018-08-23T22:54:05.379Z,66.21
2018-08-23T22:56:32.611Z,66.27
2018-08-23T22:58:59.878Z,66.50
2018-08-23T23:01:27.105Z,66.46
2018-08-23T23:03:59.848Z,67.07
2018-08-23T23:06:27.062Z,66.59
2018-08-23T23:08:54.306Z,66.02
2018-08-23T23:11:21.626Z,64.92
2018-08-23T23:13:48.862Z,64.28
2018-08-23T23:16:22.911Z,64.54
2018-08-23T23:18:50.117Z,64.70
2018-08-23T23:21:17.326Z,64.94
2018-08-23T23:23:44.566Z,65.13
2018-08-23T23:26:12.128Z,65.19
2018-08-23T23:28:39.348Z,64.81
2018-08-23T23:31:06.585Z,64.18
2018-08-23T23:33:33.832Z,64.63
2018-08-23T23:36:01.043Z,64.37
2018-08-23T23:38:28.327Z,63.86
2018-08-23T23:40:55.545Z,63.32
2018-08-23T23:43:22.816Z,63.20
2018-08-23T23:45:50.036Z,63.47
2018-08-23T23:48:17.316Z,62.98
2018-08-23T23:50:44.529Z,63.00
2018-08-23T23:53:11.743Z,62.96
2018-08-23T23:55:38.985Z,62.67
2018-08-23T23:58:06.243Z,62.60
